Time;durP1;ratioP1;P1;durP2;ratioP2;P2;SDS_P1;SDS_P2;PMS_P1;PMS_P2;Temp;Humidity;BMP_temperature;BMP_pressure;BME280_temperature;BME280_humidity;BME280_pressure;Samples;Min_cycle;Max_cycle;Signal;HPM_P1;HPM_P2
2022/03/31 00:00:44;;;;;;;2.67;0.90;;;3.60;70.50;;;;;;6290699;22;20042;-88
2022/03/31 00:03:13;;;;;;;4.55;0.90;;;3.60;70.70;;;;;;6315815;22;20376;-86
2022/03/31 00:05:39;;;;;;;3.53;0.70;;;3.60;70.70;;;;;;6316563;22;20018;-89
2022/03/31 00:08:08;;;;;;;4.50;0.88;;;3.70;70.70;;;;;;6338977;22;20093;-88
2022/03/31 00:10:39;;;;;;;3.50;0.77;;;3.70;70.70;;;;;;6359193;22;20014;-88
2022/03/31 00:13:09;;;;;;;5.88;1.10;;;3.70;70.80;;;;;;6358420;22;20019;-88
2022/03/31 00:15:35;;;;;;;3.45;0.90;;;3.70;71.20;;;;;;6334010;22;20025;-87
2022/03/31 00:18:02;;;;;;;4.25;0.80;;;3.70;71.00;;;;;;6333193;22;20023;-87
2022/03/31 00:21:06;;;;;;;5.00;0.90;;;3.70;70.90;;;;;;6359602;22;20007;-88
2022/03/31 00:23:36;;;;;;;2.67;0.70;;;3.80;71.20;;;;;;6327097;22;20014;-88
2022/03/31 00:26:03;;;;;;;4.75;1.13;;;3.80;71.00;;;;;;6295512;22;20029;-88
2022/03/31 00:28:28;;;;;;;4.70;1.17;;;3.80;70.60;;;;;;6347465;22;20058;-88
2022/03/31 00:30:54;;;;;;;4.47;1.10;;;3.90;70.60;;;;;;6294226;22;20066;-88
2022/03/31 00:33:20;;;;;;;3.10;1.05;;;3.90;70.70;;;;;;6342257;22;20007;-88
2022/03/31 00:39:29;;;;;;;3.90;0.95;;;3.90;70.60;;;;;;6341127;22;20120;-88
2022/03/31 00:41:56;;;;;;;2.40;1.00;;;3.90;70.70;;;;;;6341531;22;20018;-88
2022/03/31 00:44:22;;;;;;;2.45;0.90;;;4.00;70.90;;;;;;6314158;22;20021;-88
2022/03/31 00:46:49;;;;;;;2.65;0.70;;;4.40;71.00;;;;;;6340896;22;20089;-88
2022/03/31 00:49:20;;;;;;;5.60;1.10;;;4.00;70.70;;;;;;6318701;22;20042;-88
2022/03/31 00:51:47;;;;;;;7.03;1.13;;;4.00;70.60;;;;;;6360717;22;20015;-88
2022/03/31 00:54:14;;;;;;;6.13;1.27;;;4.00;70.70;;;;;;6360045;22;20015;-88
2022/03/31 00:56:41;;;;;;;4.68;1.02;;;4.00;70.50;;;;;;6361479;22;20026;-89
2022/03/31 00:59:09;;;;;;;5.30;1.73;;;4.00;70.50;;;;;;6335443;22;20068;-87
2022/03/31 01:01:39;;;;;;;3.78;0.88;;;4.10;70.60;;;;;;6308649;22;20022;-88
2022/03/31 01:04:06;;;;;;;3.50;1.17;;;4.10;70.40;;;;;;6360708;22;20038;-88
2022/03/31 01:06:31;;;;;;;6.60;1.15;;;4.10;70.20;;;;;;6344407;22;20010;-88
2022/03/31 01:08:57;;;;;;;3.45;1.33;;;4.10;70.30;;;;;;6287610;22;20325;-87
2022/03/31 01:11:23;;;;;;;4.70;1.48;;;4.10;70.30;;;;;;6312492;22;20064;-89
2022/03/31 01:13:49;;;;;;;5.82;1.38;;;4.60;70.70;;;;;;6288989;22;20054;-89
2022/03/31 01:16:15;;;;;;;3.40;1.10;;;4.10;70.50;;;;;;6313499;22;20338;-89
2022/03/31 01:18:42;;;;;;;5.70;1.23;;;4.10;70.50;;;;;;6288122;22;20015;-89
2022/03/31 01:21:09;;;;;;;3.47;1.20;;;4.10;70.50;;;;;;6287239;22;20015;-88
2022/03/31 01:23:35;;;;;;;3.05;0.90;;;4.10;70.50;;;;;;6312971;22;20387;-88
2022/03/31 01:26:01;;;;;;;3.38;0.90;;;4.10;70.40;;;;;;6340724;22;20026;-89
2022/03/31 01:28:27;;;;;;;6.20;1.00;;;4.10;70.50;;;;;;6340621;22;20325;-88
2022/03/31 01:30:53;;;;;;;2.38;0.88;;;4.10;70.50;;;;;;6313251;22;20046;-89
2022/03/31 01:33:19;;;;;;;3.47;1.25;;;4.10;70.30;;;;;;6287120;22;20109;-90
2022/03/31 01:36:04;;;;;;;5.22;1.05;;;4.10;70.30;;;;;;6313295;22;20061;-89
2022/03/31 01:38:30;;;;;;;4.78;0.95;;;4.10;70.40;;;;;;6340880;22;20018;-88
2022/03/31 01:40:57;;;;;;;3.78;1.02;;;4.20;70.40;;;;;;6312916;22;20022;-88
2022/03/31 01:43:23;;;;;;;6.40;1.10;;;4.20;70.50;;;;;;6313533;22;20023;-88
2022/03/31 01:45:49;;;;;;;5.97;1.63;;;4.20;70.50;;;;;;6287881;22;20472;-89
2022/03/31 01:48:16;;;;;;;6.38;1.15;;;4.30;70.40;;;;;;6313093;22;20010;-89
2022/03/31 01:51:05;;;;;;;2.65;0.90;;;4.30;70.30;;;;;;6311251;22;20019;-89
2022/03/31 01:53:32;;;;;;;4.18;1.20;;;4.30;70.20;;;;;;6312793;22;20476;-89
2022/03/31 01:55:58;;;;;;;3.42;1.20;;;4.30;70.20;;;;;;6340971;22;20011;-89
2022/03/31 01:58:23;;;;;;;3.55;1.23;;;4.40;70.10;;;;;;6340197;22;20330;-89
2022/03/31 02:00:50;;;;;;;4.15;1.05;;;4.40;70.10;;;;;;6287329;22;20027;-88
2022/03/31 02:03:16;;;;;;;2.97;1.17;;;4.40;70.00;;;;;;6287211;22;20430;-89
2022/03/31 02:05:42;;;;;;;2.30;0.95;;;4.60;70.00;;;;;;6313390;22;20015;-88
2022/03/31 02:08:08;;;;;;;2.30;0.98;;;4.40;69.80;;;;;;6311364;22;20517;-89
2022/03/31 02:10:35;;;;;;;4.05;1.30;;;4.50;69.90;;;;;;6340811;22;20046;-88
2022/03/31 02:13:01;;;;;;;2.75;0.90;;;4.50;69.90;;;;;;6312848;22;20026;-88
2022/03/31 02:15:29;;;;;;;5.28;1.10;;;4.50;69.80;;;;;;6312623;22;20030;-90
2022/03/31 02:17:55;;;;;;;2.03;0.77;;;4.50;69.80;;;;;;6347015;22;20017;-88
2022/03/31 02:20:27;;;;;;;4.03;1.10;;;4.50;69.70;;;;;;6301864;22;20018;-89
2022/03/31 02:22:53;;;;;;;3.97;1.10;;;4.60;69.70;;;;;;6355504;22;20026;-89
2022/03/31 02:25:19;;;;;;;3.60;1.10;;;4.60;69.60;;;;;;6316695;22;20015;-89
2022/03/31 02:27:44;;;;;;;3.05;1.20;;;4.70;69.60;;;;;;6313486;22;20026;-89
2022/03/31 02:30:10;;;;;;;3.22;1.10;;;4.70;69.60;;;;;;6312875;22;20015;-89
2022/03/31 02:32:37;;;;;;;3.17;1.00;;;4.80;69.50;;;;;;6340926;22;20052;-89
2022/03/31 02:35:05;;;;;;;5.55;1.17;;;4.80;69.40;;;;;;6286977;22;20014;-89
2022/03/31 02:38:08;;;;;;;5.40;1.17;;;4.80;69.20;;;;;;6312852;22;20483;-88
2022/03/31 02:40:34;;;;;;;7.03;1.60;;;4.80;69.10;;;;;;6312624;22;20011;-89
2022/03/31 02:42:59;;;;;;;3.63;1.20;;;4.80;69.20;;;;;;6312966;22;20109;-89
2022/03/31 02:45:25;;;;;;;2.85;1.23;;;4.80;69.10;;;;;;6313094;22;20019;-88
2022/03/31 02:47:51;;;;;;;3.85;1.25;;;4.80;69.10;;;;;;6340328;22;20438;-88
2022/03/31 02:50:17;;;;;;;6.05;1.67;;;4.80;68.90;;;;;;6312585;22;20019;-88
2022/03/31 02:55:29;;;;;;;6.10;2.33;;;4.70;68.80;;;;;;6309315;22;20086;-89
2022/03/31 02:58:02;;;;;;;2.03;0.90;;;4.70;68.90;;;;;;6255501;22;20435;-89
2022/03/31 03:00:34;;;;;;;3.95;1.02;;;4.60;69.00;;;;;;6281850;22;20019;-90
2022/03/31 03:03:04;;;;;;;4.07;1.10;;;4.60;68.90;;;;;;6309175;22;20490;-89
2022/03/31 03:05:31;;;;;;;5.88;1.70;;;4.50;68.90;;;;;;6281449;22;20618;-89
2022/03/31 03:07:57;;;;;;;5.72;1.45;;;4.50;68.80;;;;;;6280656;22;20020;-89
2022/03/31 03:10:22;;;;;;;2.33;0.88;;;4.40;68.90;;;;;;6309583;22;20141;-89
2022/03/31 03:12:51;;;;;;;5.70;1.17;;;4.40;69.10;;;;;;6256318;22;20022;-89
2022/03/31 03:15:17;;;;;;;3.42;1.10;;;4.40;69.30;;;;;;6281822;22;20339;-90
2022/03/31 03:17:45;;;;;;;3.55;1.23;;;4.30;69.20;;;;;;6309072;22;20017;-88
2022/03/31 03:20:13;;;;;;;6.57;1.33;;;4.30;69.40;;;;;;6308505;22;20090;-90
2022/03/31 03:22:49;;;;;;;5.20;1.23;;;4.20;69.30;;;;;;6255487;22;20020;-89
2022/03/31 03:25:18;;;;;;;3.63;1.70;;;4.20;69.60;;;;;;6281929;22;20099;-89
2022/03/31 03:27:45;;;;;;;4.75;1.75;;;4.20;69.70;;;;;;6309723;22;20090;-91
2022/03/31 03:30:11;;;;;;;3.97;1.48;;;4.20;69.80;;;;;;6283183;22;20076;-91
2022/03/31 03:32:38;;;;;;;4.60;1.90;;;4.20;69.70;;;;;;6282774;22;20098;-91
2022/03/31 03:35:05;;;;;;;4.32;1.63;;;4.10;69.70;;;;;;6299954;22;20007;-89
2022/03/31 03:37:31;;;;;;;7.10;2.00;;;4.10;70.00;;;;;;6282247;22;20010;-91
2022/03/31 03:39:57;;;;;;;4.72;1.75;;;4.10;70.40;;;;;;6281294;22;20023;-91
2022/03/31 03:42:22;;;;;;;3.97;2.08;;;4.10;70.50;;;;;;6309540;22;20015;-89
2022/03/31 03:44:48;;;;;;;4.60;2.50;;;4.10;70.40;;;;;;6307437;22;20054;-88
2022/03/31 03:47:14;;;;;;;4.68;2.30;;;4.10;70.70;;;;;;6311466;22;20019;-90
2022/03/31 03:49:40;;;;;;;4.97;2.60;;;4.10;70.70;;;;;;6311451;22;20026;-88
2022/03/31 03:53:17;;;;;;;5.55;2.50;;;4.10;70.40;;;;;;6310712;22;20419;-89
2022/03/31 03:55:43;;;;;;;4.22;2.42;;;4.10;70.70;;;;;;6288757;22;20014;-90
2022/03/31 03:58:08;;;;;;;5.10;2.38;;;4.10;71.00;;;;;;6314738;22;20056;-90
2022/03/31 04:00:34;;;;;;;8.45;3.55;;;4.10;70.90;;;;;;6288568;22;20026;-89
2022/03/31 04:03:00;;;;;;;3.83;2.50;;;4.10;71.00;;;;;;6288067;22;20057;-89
2022/03/31 04:05:26;;;;;;;5.47;3.00;;;4.10;70.80;;;;;;6340429;22;20011;-89
2022/03/31 04:08:07;;;;;;;9.05;3.67;;;4.10;71.20;;;;;;6314658;22;20018;-89
2022/03/31 04:10:34;;;;;;;4.60;2.92;;;4.00;71.20;;;;;;6288621;22;20013;-90
2022/03/31 04:13:00;;;;;;;5.93;2.85;;;4.00;71.10;;;;;;6314553;22;20018;-90
2022/03/31 04:15:25;;;;;;;6.55;2.70;;;4.00;71.20;;;;;;6314739;22;20326;-90
2022/03/31 04:17:51;;;;;;;5.47;2.92;;;4.00;71.10;;;;;;6289299;22;20015;-89
2022/03/31 04:20:17;;;;;;;4.32;2.92;;;4.50;71.40;;;;;;6341799;22;20010;-89
2022/03/31 04:22:42;;;;;;;5.13;3.60;;;4.10;71.20;;;;;;6314723;22;20010;-91
2022/03/31 04:25:10;;;;;;;5.88;3.40;;;4.20;71.30;;;;;;6314485;22;20011;-90
2022/03/31 04:27:37;;;;;;;5.65;4.18;;;4.00;71.00;;;;;;6342658;22;20369;-91
2022/03/31 04:30:07;;;;;;;7.15;4.00;;;4.00;71.00;;;;;;6341560;22;20445;-90
2022/03/31 04:32:33;;;;;;;5.97;3.90;;;4.00;71.00;;;;;;6314626;22;20014;-90
2022/03/31 04:34:59;;;;;;;4.57;3.95;;;4.00;71.20;;;;;;6314823;22;20060;-89
2022/03/31 04:41:05;;;;;;;5.47;4.22;;;4.00;71.20;;;;;;6341672;22;20132;-90
2022/03/31 04:43:31;;;;;;;4.88;3.67;;;4.00;71.10;;;;;;6314433;22;20042;-90
2022/03/31 04:45:57;;;;;;;6.45;3.55;;;4.10;71.40;;;;;;6288859;22;20338;-91
2022/03/31 04:48:22;;;;;;;6.38;5.03;;;4.10;71.20;;;;;;6314352;22;20015;-90
2022/03/31 04:50:48;;;;;;;7.32;4.40;;;4.10;71.30;;;;;;6341437;22;20011;-90
2022/03/31 04:53:14;;;;;;;6.95;5.28;;;4.60;71.40;;;;;;6288686;22;20010;-90
2022/03/31 04:55:41;;;;;;;7.45;4.65;;;4.20;71.30;;;;;;6341272;22;20023;-93
2022/03/31 04:58:06;;;;;;;6.63;4.38;;;4.20;71.20;;;;;;6288273;22;20019;-92
2022/03/31 05:00:33;;;;;;;6.20;4.88;;;4.20;71.20;;;;;;6314460;22;20014;-91
2022/03/31 05:02:59;;;;;;;7.35;5.70;;;4.30;71.20;;;;;;6342342;22;20010;-90
2022/03/31 05:05:28;;;;;;;7.82;5.28;;;4.30;71.20;;;;;;6313649;22;20010;-89
2022/03/31 05:07:54;;;;;;;6.82;5.43;;;4.30;71.20;;;;;;6313959;22;20025;-90
2022/03/31 05:10:20;;;;;;;6.78;5.00;;;4.30;71.20;;;;;;6314299;22;20445;-89
2022/03/31 05:12:45;;;;;;;9.30;6.22;;;4.40;71.20;;;;;;6341710;22;20060;-89
2022/03/31 05:15:11;;;;;;;7.35;5.03;;;4.40;71.30;;;;;;6342022;22;20010;-89
2022/03/31 05:17:38;;;;;;;6.90;5.60;;;4.40;71.70;;;;;;6314008;22;20338;-89
2022/03/31 05:20:08;;;;;;;8.13;5.95;;;4.90;71.50;;;;;;6288309;22;20014;-89
2022/03/31 05:22:35;;;;;;;8.25;5.72;;;4.40;71.10;;;;;;6341786;22;20334;-89
2022/03/31 05:25:02;;;;;;;7.00;6.10;;;4.60;71.20;;;;;;6314095;22;20022;-89
2022/03/31 05:27:27;;;;;;;7.38;6.05;;;4.40;71.60;;;;;;6313956;22;20446;-90
2022/03/31 05:29:53;;;;;;;7.90;5.72;;;4.60;71.10;;;;;;6342002;22;20015;-90
2022/03/31 05:32:19;;;;;;;6.05;5.45;;;4.40;71.00;;;;;;6342540;22;20038;-91
2022/03/31 05:34:44;;;;;;;5.97;5.38;;;4.40;71.00;;;;;;6289667;22;20006;-89
2022/03/31 05:40:52;;;;;;;5.28;4.68;;;4.40;71.10;;;;;;6354044;22;20036;-91
2022/03/31 05:43:17;;;;;;;5.43;4.85;;;4.40;71.00;;;;;;6302708;22;20034;-89
2022/03/31 05:45:43;;;;;;;5.43;4.68;;;4.30;71.00;;;;;;6328465;22;20034;-89
2022/03/31 05:48:08;;;;;;;6.03;5.32;;;4.30;71.10;;;;;;6296066;22;20064;-88
2022/03/31 05:50:35;;;;;;;6.40;5.03;;;4.30;71.10;;;;;;6343152;22;20003;-89
2022/03/31 05:53:01;;;;;;;5.50;4.80;;;4.30;71.10;;;;;;6341758;22;20455;-89
2022/03/31 05:55:28;;;;;;;6.05;4.93;;;4.30;71.60;;;;;;6313658;22;20017;-89
2022/03/31 05:57:54;;;;;;;5.40;4.70;;;4.30;71.80;;;;;;6288827;22;20018;-92
2022/03/31 06:00:21;;;;;;;5.78;5.18;;;4.30;71.30;;;;;;6316540;22;20021;-90
2022/03/31 06:02:47;;;;;;;7.05;5.03;;;4.30;71.30;;;;;;6325047;22;20063;-91
2022/03/31 06:05:13;;;;;;;5.65;4.68;;;4.20;71.10;;;;;;6323967;22;20076;-88
2022/03/31 06:07:39;;;;;;;5.78;5.07;;;4.50;71.40;;;;;;6344598;22;20551;-87
2022/03/31 06:10:06;;;;;;;5.78;5.18;;;4.10;71.30;;;;;;6311960;22;20011;-87
2022/03/31 06:12:32;;;;;;;6.15;5.40;;;4.10;71.40;;;;;;6340534;22;20060;-87
2022/03/31 06:14:58;;;;;;;6.00;5.03;;;4.10;71.80;;;;;;6340350;22;20010;-88
2022/03/31 06:17:24;;;;;;;6.60;4.93;;;4.10;71.60;;;;;;6341141;22;20067;-86
2022/03/31 06:19:49;;;;;;;6.60;5.43;;;4.00;71.70;;;;;;6312253;22;20021;-88
2022/03/31 06:22:15;;;;;;;5.30;4.70;;;4.00;72.00;;;;;;6286217;22;20090;-86
2022/03/31 06:24:40;;;;;;;5.60;4.45;;;4.10;72.20;;;;;;6340198;22;20075;-87
2022/03/31 06:27:08;;;;;;;6.10;5.43;;;4.00;72.10;;;;;;6340964;22;20042;-95
2022/03/31 06:29:34;;;;;;;6.00;5.07;;;4.00;72.20;;;;;;6314075;22;20499;-94
2022/03/31 06:32:02;;;;;;;5.50;4.93;;;4.00;72.40;;;;;;6342441;22;20365;-94
2022/03/31 06:34:28;;;;;;;5.65;4.82;;;4.00;72.30;;;;;;6314102;22;20015;-94
2022/03/31 06:36:54;;;;;;;5.63;4.93;;;4.00;72.50;;;;;;6341405;22;20068;-95
2022/03/31 06:39:20;;;;;;;5.80;5.10;;;4.00;72.70;;;;;;6314208;22;20453;-95
2022/03/31 06:41:46;;;;;;;7.57;5.75;;;3.90;72.50;;;;;;6288370;22;20033;-94
2022/03/31 06:44:13;;;;;;;5.63;5.03;;;4.00;72.90;;;;;;6341609;22;20015;-94
2022/03/31 06:46:40;;;;;;;5.47;4.30;;;4.00;72.90;;;;;;6344281;22;20010;-94
2022/03/31 06:49:06;;;;;;;4.93;4.30;;;3.90;72.80;;;;;;6354552;22;20015;-93
2022/03/31 06:51:32;;;;;;;5.72;5.13;;;4.00;73.00;;;;;;6336175;22;20002;-95
2022/03/31 06:53:59;;;;;;;5.00;4.47;;;4.00;73.30;;;;;;6336597;22;20007;-90
2022/03/31 06:56:27;;;;;;;5.00;4.40;;;4.00;73.30;;;;;;6341102;22;20018;-90
2022/03/31 06:58:57;;;;;;;5.03;4.53;;;4.00;73.30;;;;;;6297618;22;20006;-95
2022/03/31 07:01:23;;;;;;;4.72;4.22;;;4.40;73.40;;;;;;6342598;22;20433;-93
2022/03/31 07:03:49;;;;;;;6.03;4.30;;;4.00;73.10;;;;;;6314570;22;20015;-94
2022/03/31 07:06:15;;;;;;;5.32;4.50;;;4.40;73.20;;;;;;6313992;22;20021;-93
2022/03/31 07:12:22;;;;;;;4.85;4.32;;;4.00;73.30;;;;;;6342115;22;20048;-94
2022/03/31 07:14:47;;;;;;;4.85;4.20;;;4.00;73.20;;;;;;6344160;22;20019;-94
2022/03/31 07:17:13;;;;;;;4.60;3.92;;;3.90;73.60;;;;;;6314488;22;20071;-94
2022/03/31 07:19:40;;;;;;;4.68;3.97;;;3.90;73.50;;;;;;6315328;22;20331;-94
2022/03/31 07:22:05;;;;;;;5.68;4.68;;;3.90;73.50;;;;;;6343678;22;20090;-93
2022/03/31 07:24:31;;;;;;;5.22;4.72;;;4.40;73.70;;;;;;6316508;22;20018;-93
2022/03/31 07:26:57;;;;;;;5.15;4.65;;;4.00;73.60;;;;;;6290485;22;20042;-94
2022/03/31 07:29:22;;;;;;;4.53;4.10;;;4.00;73.60;;;;;;6316283;22;20093;-94
2022/03/31 07:31:48;;;;;;;5.05;4.15;;;4.00;73.80;;;;;;6317295;22;20044;-96
2022/03/31 07:34:14;;;;;;;4.88;4.25;;;4.10;73.90;;;;;;6316335;22;20022;-93
2022/03/31 07:36:40;;;;;;;5.00;4.45;;;4.00;73.60;;;;;;6290046;22;20102;-94
2022/03/31 07:42:46;;;;;;;5.40;4.90;;;4.00;73.90;;;;;;6342288;22;20422;-94
2022/03/31 07:45:12;;;;;;;5.97;5.22;;;4.10;73.90;;;;;;6315526;22;20018;-94
2022/03/31 07:47:42;;;;;;;5.07;4.57;;;4.40;74.20;;;;;;6343080;22;20019;-94
2022/03/31 07:50:12;;;;;;;5.95;5.35;;;4.10;74.40;;;;;;6315323;22;20015;-94
2022/03/31 07:52:39;;;;;;;4.90;4.40;;;4.20;74.20;;;;;;6315506;22;20011;-94
2022/03/31 07:55:07;;;;;;;5.72;4.93;;;4.20;74.20;;;;;;6316227;22;20015;-95
2022/03/31 07:57:33;;;;;;;4.88;4.38;;;4.20;74.00;;;;;;6315163;22;20014;-94
2022/03/31 07:59:59;;;;;;;5.78;4.97;;;4.30;73.90;;;;;;6315180;22;20043;-95
2022/03/31 08:02:26;;;;;;;5.97;4.97;;;4.30;73.90;;;;;;6342709;22;20076;-92
2022/03/31 08:04:52;;;;;;;6.13;5.20;;;4.20;73.70;;;;;;6315284;22;20007;-92
2022/03/31 08:07:18;;;;;;;5.40;4.90;;;4.20;73.70;;;;;;6343157;22;20011;-93
2022/03/31 08:09:43;;;;;;;5.40;4.90;;;4.40;74.10;;;;;;6289796;22;20518;-94
2022/03/31 08:12:10;;;;;;;5.35;4.85;;;4.20;74.10;;;;;;6289337;22;20046;-94
2022/03/31 08:14:36;;;;;;;5.35;4.50;;;4.20;74.10;;;;;;6317019;22;20014;-95
2022/03/31 08:17:02;;;;;;;6.80;5.78;;;4.20;74.00;;;;;;6289337;22;20462;-93
2022/03/31 08:19:32;;;;;;;5.28;4.72;;;4.30;74.30;;;;;;6289573;22;20061;-94
2022/03/31 08:22:02;;;;;;;5.40;4.90;;;4.30;74.20;;;;;;6315103;22;20011;-96
2022/03/31 08:24:29;;;;;;;5.88;5.13;;;4.30;74.40;;;;;;6315304;22;20011;-94
2022/03/31 08:26:55;;;;;;;4.93;4.43;;;4.30;74.10;;;;;;6315123;22;20007;-94
2022/03/31 08:29:21;;;;;;;6.90;5.18;;;4.30;74.20;;;;;;6315081;22;20068;-93
2022/03/31 08:31:47;;;;;;;5.22;4.72;;;4.30;74.10;;;;;;6288854;22;20018;-94
2022/03/31 08:34:13;;;;;;;4.80;4.30;;;4.30;74.20;;;;;;6315463;22;20042;-94
2022/03/31 08:36:38;;;;;;;5.35;4.85;;;4.30;74.10;;;;;;6289559;22;20019;-94
2022/03/31 08:39:05;;;;;;;5.30;4.80;;;4.30;74.00;;;;;;6302000;22;20047;-91
2022/03/31 08:41:31;;;;;;;5.45;4.90;;;4.30;74.00;;;;;;6341981;22;20007;-91
2022/03/31 08:43:57;;;;;;;5.95;5.35;;;4.30;73.80;;;;;;6368579;22;20022;-90
2022/03/31 08:46:27;;;;;;;5.90;5.30;;;4.80;74.10;;;;;;6341801;22;20018;-90
2022/03/31 08:48:53;;;;;;;6.22;5.63;;;4.30;73.90;;;;;;6319384;22;20011;-95
2022/03/31 08:51:19;;;;;;;6.22;5.13;;;4.30;73.90;;;;;;6315022;22;20488;-93
2022/03/31 08:53:45;;;;;;;6.45;5.85;;;4.20;73.80;;;;;;6315376;22;20015;-91
2022/03/31 08:56:10;;;;;;;5.80;5.20;;;4.30;74.00;;;;;;6343191;22;20023;-94
2022/03/31 08:58:36;;;;;;;6.70;5.85;;;4.60;74.20;;;;;;6290874;22;20014;-95
2022/03/31 09:01:02;;;;;;;6.53;5.82;;;4.20;73.90;;;;;;6314410;22;20017;-93
2022/03/31 09:03:36;;;;;;;5.40;4.88;;;4.20;73.70;;;;;;6342214;22;20039;-94
2022/03/31 09:06:04;;;;;;;5.95;5.35;;;4.20;73.90;;;;;;6314810;22;20015;-94
2022/03/31 09:08:30;;;;;;;6.35;5.30;;;4.10;73.70;;;;;;6316171;22;20026;-95
2022/03/31 09:11:03;;;;;;;6.30;5.70;;;4.10;73.70;;;;;;6314710;22;20093;-94
2022/03/31 09:13:31;;;;;;;5.60;5.05;;;4.10;73.70;;;;;;6343191;22;20196;-94
2022/03/31 09:16:03;;;;;;;5.03;4.53;;;4.10;73.90;;;;;;6315074;22;20038;-94
2022/03/31 09:18:31;;;;;;;5.75;5.00;;;4.10;74.10;;;;;;6317022;22;20022;-92
2022/03/31 09:21:00;;;;;;;5.13;4.63;;;4.10;74.00;;;;;;6316233;22;20056;-95
2022/03/31 09:23:28;;;;;;;6.25;5.07;;;4.00;74.00;;;;;;6344135;22;20330;-92
2022/03/31 09:26:03;;;;;;;5.30;4.63;;;4.00;73.90;;;;;;6345643;22;20012;-91
2022/03/31 09:28:31;;;;;;;4.80;4.30;;;4.00;74.20;;;;;;6321346;22;20018;-96
2022/03/31 09:30:56;;;;;;;6.15;5.07;;;3.90;74.40;;;;;;6345795;22;20011;-95
2022/03/31 09:33:31;;;;;;;5.15;4.65;;;3.90;74.40;;;;;;6343074;22;20438;-93
2022/03/31 10:19:52;;;;;;;3.85;3.10;;;3.60;72.20;;;;;;5107135;27;1484411;-96
2022/03/31 10:25:37;;;;;;;3.47;2.78;;;3.80;75.80;;;;;;5120590;28;20046;-95
2022/03/31 10:28:21;;;;;;;3.78;2.97;;;3.70;76.10;;;;;;5103188;28;20086;-90
2022/03/31 10:31:02;;;;;;;4.65;3.22;;;3.70;76.00;;;;;;5106485;28;20044;-94
2022/03/31 10:33:43;;;;;;;4.13;3.28;;;3.90;76.10;;;;;;5106749;28;20046;-94
2022/03/31 10:36:14;;;;;;;4.63;3.40;;;3.70;76.10;;;;;;5104884;28;20052;-93
2022/03/31 10:42:09;;;;;;;4.30;3.50;;;3.70;76.10;;;;;;5099319;28;20082;-90
2022/03/31 10:44:35;;;;;;;5.35;3.97;;;3.60;75.90;;;;;;5119671;28;20097;-94
2022/03/31 10:47:09;;;;;;;5.22;4.30;;;3.60;75.50;;;;;;5096520;28;20048;-92
2022/03/31 10:49:37;;;;;;;6.15;4.30;;;3.60;75.30;;;;;;5085297;28;20126;-93
2022/03/31 10:52:16;;;;;;;5.00;4.07;;;3.60;75.30;;;;;;5085341;28;20060;-95
2022/03/31 10:54:42;;;;;;;5.28;4.50;;;3.50;75.50;;;;;;5083218;28;20048;-93
2022/03/31 10:57:17;;;;;;;6.30;4.53;;;3.50;75.40;;;;;;5098435;28;20043;-92
2022/03/31 10:59:44;;;;;;;5.72;4.85;;;3.50;75.50;;;;;;5088271;28;20044;-93
2022/03/31 11:02:19;;;;;;;5.40;4.38;;;3.50;75.50;;;;;;5082361;28;20036;-95
2022/03/31 11:04:50;;;;;;;5.22;3.90;;;3.50;75.30;;;;;;5076540;28;20037;-95
2022/03/31 11:07:24;;;;;;;5.60;3.97;;;3.50;75.10;;;;;;5096347;28;20409;-92
2022/03/31 11:10:21;;;;;;;5.78;4.47;;;3.50;75.00;;;;;;5048309;28;20070;-95
2022/03/31 11:12:47;;;;;;;6.53;4.63;;;3.40;74.90;;;;;;5079186;28;20063;-94
2022/03/31 11:15:16;;;;;;;5.90;4.55;;;3.40;75.00;;;;;;5115917;28;20363;-93
2022/03/31 11:17:42;;;;;;;6.50;5.22;;;3.80;75.10;;;;;;5080973;28;20044;-95
2022/03/31 11:20:24;;;;;;;5.30;4.25;;;3.80;75.50;;;;;;5105509;28;20044;-93
2022/03/31 11:26:35;;;;;;;5.40;4.55;;;3.30;74.40;;;;;;5111618;28;20502;-93
2022/03/31 11:29:02;;;;;;;5.97;4.47;;;3.20;74.60;;;;;;5084362;28;20052;-92
2022/03/31 11:31:28;;;;;;;5.60;4.78;;;3.20;74.60;;;;;;5089855;28;20051;-93
2022/03/31 11:33:58;;;;;;;7.00;5.53;;;3.10;75.00;;;;;;5070287;28;20130;-93
2022/03/31 11:36:25;;;;;;;7.15;5.15;;;3.10;74.70;;;;;;5065169;28;20044;-94
2022/03/31 11:38:58;;;;;;;5.60;4.50;;;3.10;74.60;;;;;;5064149;28;20041;-93
2022/03/31 11:41:25;;;;;;;5.63;4.20;;;3.10;74.70;;;;;;5061209;28;20472;-91
2022/03/31 11:43:56;;;;;;;5.55;4.50;;;3.00;74.50;;;;;;5046045;28;20036;-93
2022/03/31 11:46:21;;;;;;;5.80;4.35;;;3.00;74.60;;;;;;5078662;28;20043;-93
2022/03/31 11:48:52;;;;;;;6.22;5.10;;;3.00;74.50;;;;;;5086799;28;20078;-94
2022/03/31 11:51:18;;;;;;;6.95;4.90;;;2.90;74.30;;;;;;5098843;28;20445;-91
2022/03/31 11:54:22;;;;;;;8.13;6.10;;;2.90;74.30;;;;;;5101976;28;20087;-93
2022/03/31 11:56:48;;;;;;;7.63;5.65;;;2.90;74.30;;;;;;5076996;28;20136;-92
2022/03/31 11:59:14;;;;;;;7.90;6.13;;;2.80;74.40;;;;;;5062393;28;20044;-92
2022/03/31 12:01:47;;;;;;;8.55;6.47;;;2.80;74.50;;;;;;5043443;28;20047;-94
2022/03/31 12:04:24;;;;;;;8.47;5.93;;;2.70;74.30;;;;;;5080170;28;20059;-94
2022/03/31 12:06:52;;;;;;;9.43;7.20;;;2.70;74.50;;;;;;5083605;28;20206;-93
2022/03/31 12:09:18;;;;;;;7.97;6.23;;;3.10;74.70;;;;;;5100534;28;20132;-95
2022/03/31 12:11:46;;;;;;;7.70;6.17;;;2.70;74.90;;;;;;5075689;28;20047;-95
2022/03/31 12:14:11;;;;;;;7.93;6.20;;;2.80;74.60;;;;;;5078990;28;20102;-93
2022/03/31 12:16:52;;;;;;;7.87;5.80;;;2.60;74.80;;;;;;5061861;28;20040;-94
2022/03/31 12:19:18;;;;;;;10.93;6.10;;;2.60;74.70;;;;;;5064127;28;20049;-91
2022/03/31 12:21:58;;;;;;;6.37;5.07;;;2.60;74.70;;;;;;5084299;28;20055;-92
2022/03/31 12:24:25;;;;;;;7.23;5.40;;;2.50;74.70;;;;;;5101092;28;20044;-91
2022/03/31 12:26:53;;;;;;;5.87;4.60;;;2.50;74.80;;;;;;5084296;28;20087;-92
2022/03/31 12:29:19;;;;;;;6.20;4.57;;;2.40;74.70;;;;;;5098460;28;20396;-92
2022/03/31 12:31:45;;;;;;;4.77;3.83;;;2.40;74.70;;;;;;5076681;28;20395;-91
2022/03/31 12:34:14;;;;;;;5.10;4.17;;;2.40;74.80;;;;;;5060382;28;20049;-93
2022/03/31 12:36:42;;;;;;;5.37;4.20;;;2.40;74.70;;;;;;5072982;28;20036;-92
2022/03/31 12:39:39;;;;;;;5.47;4.10;;;2.30;74.60;;;;;;5074096;28;20039;-92
2022/03/31 12:42:10;;;;;;;5.10;3.70;;;2.30;74.90;;;;;;5077124;28;20102;-90
2022/03/31 12:44:39;;;;;;;4.93;3.70;;;2.30;75.20;;;;;;5041821;28;20048;-93
2022/03/31 12:47:05;;;;;;;5.17;3.70;;;2.30;74.90;;;;;;5057887;28;20127;-92
2022/03/31 12:49:40;;;;;;;4.20;3.37;;;2.20;75.20;;;;;;5076146;28;20222;-90
2022/03/31 12:52:17;;;;;;;4.37;3.60;;;2.20;75.10;;;;;;5076147;28;20364;-90
2022/03/31 12:54:46;;;;;;;5.27;3.70;;;2.20;75.20;;;;;;5041423;28;20048;-89
2022/03/31 12:57:21;;;;;;;5.03;3.97;;;2.20;75.20;;;;;;5076057;28;20052;-90
2022/03/31 13:00:12;;;;;;;4.60;4.00;;;2.20;75.30;;;;;;5075639;28;20090;-91
2022/03/31 13:02:39;;;;;;;4.77;4.20;;;2.20;75.60;;;;;;5073008;28;20048;-84
2022/03/31 13:05:06;;;;;;;4.77;3.77;;;2.20;75.60;;;;;;5057633;28;20123;-83
2022/03/31 13:07:32;;;;;;;5.20;3.90;;;2.30;75.50;;;;;;5051179;28;20044;-84
2022/03/31 13:10:05;;;;;;;4.50;3.57;;;2.30;75.50;;;;;;5061356;28;20135;-84
2022/03/31 13:12:31;;;;;;;4.30;3.50;;;2.30;76.00;;;;;;5051570;28;20417;-86
2022/03/31 13:14:58;;;;;;;6.10;3.80;;;2.40;75.50;;;;;;5079319;28;20092;-84
2022/03/31 13:17:24;;;;;;;4.80;3.77;;;2.30;75.10;;;;;;5062606;28;20043;-84
2022/03/31 13:19:51;;;;;;;4.40;3.50;;;2.30;75.20;;;;;;5088927;28;20044;-84
2022/03/31 13:22:22;;;;;;;6.83;3.63;;;2.40;75.20;;;;;;5053333;28;20063;-83
2022/03/31 13:24:48;;;;;;;5.07;4.07;;;2.30;75.20;;;;;;5055973;28;20049;-83
2022/03/31 13:27:15;;;;;;;5.17;4.40;;;2.30;75.10;;;;;;5066523;28;20040;-85
2022/03/31 13:29:40;;;;;;;5.17;4.40;;;2.20;75.10;;;;;;5066295;28;20942;-84
2022/03/31 13:32:07;;;;;;;5.30;4.53;;;2.40;75.30;;;;;;5073170;28;20044;-86
2022/03/31 13:34:35;;;;;;;5.40;4.67;;;2.30;75.10;;;;;;5056806;28;20092;-83
2022/03/31 13:37:04;;;;;;;6.30;5.07;;;2.30;75.20;;;;;;5069355;28;20391;-85
2022/03/31 13:39:31;;;;;;;6.50;4.90;;;2.30;75.20;;;;;;5056436;28;20056;-87
2022/03/31 13:41:57;;;;;;;6.07;5.40;;;2.70;75.40;;;;;;5056187;28;20048;-85
2022/03/31 13:44:24;;;;;;;6.93;5.70;;;2.30;75.30;;;;;;5076612;28;20793;-86
2022/03/31 13:46:52;;;;;;;6.63;5.33;;;2.30;75.30;;;;;;5080332;28;20054;-86
2022/03/31 13:49:19;;;;;;;6.50;5.60;;;2.30;75.30;;;;;;5067124;28;20580;-85
2022/03/31 13:51:45;;;;;;;7.23;5.90;;;2.40;75.30;;;;;;5043195;28;20076;-85
2022/03/31 13:54:12;;;;;;;8.07;6.60;;;2.30;75.40;;;;;;5065416;28;20133;-85
2022/03/31 13:56:42;;;;;;;8.13;7.07;;;2.30;75.40;;;;;;5087561;28;20044;-85
2022/03/31 14:01:55;;;;;;;9.52;7.88;;;2.30;75.90;;;;;;5070681;28;20052;-85
2022/03/31 14:04:21;;;;;;;9.23;8.33;;;2.30;75.70;;;;;;5052402;28;20097;-84
2022/03/31 14:06:49;;;;;;;10.77;9.13;;;2.30;75.80;;;;;;5078394;28;20040;-85
2022/03/31 14:09:16;;;;;;;12.23;10.13;;;2.30;75.90;;;;;;5060544;28;20098;-84
2022/03/31 14:11:42;;;;;;;11.77;10.47;;;2.30;75.70;;;;;;5088920;28;20044;-85
2022/03/31 14:14:10;;;;;;;12.63;10.67;;;2.30;75.90;;;;;;5071032;28;20043;-86
2022/03/31 14:16:37;;;;;;;12.63;11.27;;;2.30;75.80;;;;;;5074569;28;20044;-85
2022/03/31 14:19:04;;;;;;;13.50;11.23;;;2.40;76.10;;;;;;5069538;28;20062;-85